Terminal Aerodrome Forecast
Issued by NWS

Current Version | Previous Version | Text Only | Print | Product List | Glossary On
Versions: 1 2 3 4 5 6 7 8 9 10 11 12 13 14 15 16
000
FTUS42 KMLB 210534
TAFLEE
TAF
KLEE 210534Z 2106/2206 17006KT P6SM BKN150 OVC250
     FM210800 VRB03KT 4SM BR BKN010
     FM211400 32005KT P6SM SCT015 BKN150
     FM211800 36005KT P6SM SCT040 BKN150
     FM220000 02005KT P6SM SCT050 BKN150=

USA.gov is the U.S. government's official web portal to all federal, state and local government web resources and services.